createdAt,value
2017-12-05T00:00:20.489Z,24.67
2017-12-05T00:02:48.763Z,27.00
2017-12-05T00:05:17.139Z,24.87
2017-12-05T00:07:45.361Z,23.77
2017-12-05T00:10:13.660Z,26.07
2017-12-05T00:12:41.935Z,28.50
2017-12-05T00:15:10.279Z,26.37
2017-12-05T00:17:38.610Z,27.10
2017-12-05T00:20:06.939Z,26.30
2017-12-05T00:22:35.208Z,28.90
2017-12-05T00:25:03.524Z,33.97
2017-12-05T00:27:31.794Z,22.67
2017-12-05T00:30:00.119Z,32.13
2017-12-05T00:32:28.419Z,29.08
2017-12-05T00:34:56.754Z,26.67
2017-12-05T00:37:24.999Z,27.45
2017-12-05T00:39:53.300Z,23.47
2017-12-05T00:42:21.619Z,25.43
2017-12-05T00:44:49.910Z,25.80
2017-12-05T00:47:18.198Z,21.20
2017-12-05T00:49:46.486Z,26.17
2017-12-05T00:52:14.810Z,23.50
2017-12-05T00:54:43.083Z,25.60
2017-12-05T00:57:11.390Z,25.45
2017-12-05T00:59:39.715Z,24.90
2017-12-05T01:02:08.001Z,27.70
2017-12-05T01:04:36.352Z,24.30
2017-12-05T01:07:05.457Z,24.60
2017-12-05T01:09:33.767Z,22.30
2017-12-05T01:12:02.060Z,22.37
2017-12-05T01:14:30.354Z,27.30
2017-12-05T01:16:58.625Z,23.00
2017-12-05T01:19:26.915Z,19.53
2017-12-05T01:21:55.196Z,17.50
2017-12-05T01:24:23.515Z,23.17
2017-12-05T01:26:51.788Z,19.70
2017-12-05T01:29:20.078Z,19.92
2017-12-05T01:31:48.386Z,21.30
2017-12-05T01:34:16.682Z,18.80
2017-12-05T01:36:45.062Z,23.00
2017-12-05T01:39:13.335Z,18.20
2017-12-05T01:41:41.640Z,19.30
2017-12-05T01:44:10.223Z,21.20
2017-12-05T01:46:38.534Z,21.03
2017-12-05T01:49:06.856Z,20.00
2017-12-05T01:51:35.151Z,19.23
2017-12-05T01:54:03.439Z,15.50
2017-12-05T01:56:31.743Z,16.47
2017-12-05T01:59:00.043Z,20.20
2017-12-05T02:01:28.353Z,19.43
2017-12-05T02:03:56.659Z,20.33
2017-12-05T02:06:24.974Z,15.20
2017-12-05T02:08:53.300Z,16.03
2017-12-05T02:11:21.611Z,16.37
2017-12-05T02:13:49.956Z,15.50
2017-12-05T02:16:18.258Z,17.60
2017-12-05T02:18:46.519Z,18.57
2017-12-05T02:21:14.893Z,19.60
2017-12-05T02:23:43.275Z,18.17
2017-12-05T02:26:11.885Z,18.12
2017-12-05T02:28:40.189Z,18.37
2017-12-05T02:31:08.464Z,16.70
2017-12-05T02:33:36.751Z,21.95
2017-12-05T02:36:05.036Z,25.87
2017-12-05T02:38:33.336Z,22.15
2017-12-05T02:41:09.531Z,18.17
2017-12-05T02:43:37.859Z,18.30
2017-12-05T02:46:06.179Z,18.85
2017-12-05T02:48:34.414Z,18.13
2017-12-05T02:51:02.739Z,18.87
2017-12-05T02:53:31.035Z,16.17
2017-12-05T02:55:59.315Z,17.43
2017-12-05T02:58:27.587Z,17.57
2017-12-05T03:00:55.885Z,19.40
2017-12-05T03:03:24.528Z,20.62
2017-12-05T03:05:52.846Z,20.30
2017-12-05T03:08:21.104Z,17.62
2017-12-05T03:10:49.406Z,18.57
2017-12-05T03:13:17.682Z,19.83
2017-12-05T03:15:46.007Z,19.70
2017-12-05T03:18:14.315Z,17.15
2017-12-05T03:20:42.611Z,17.70
2017-12-05T03:23:11.167Z,20.73
2017-12-05T03:25:39.479Z,18.93
2017-12-05T03:28:07.788Z,17.57
2017-12-05T03:30:36.064Z,23.13
2017-12-05T03:33:04.370Z,21.20
2017-12-05T03:35:32.640Z,22.50
2017-12-05T03:38:01.487Z,25.70
2017-12-05T03:40:29.751Z,20.60
2017-12-05T03:42:58.050Z,20.83
2017-12-05T03:45:26.370Z,27.70
2017-12-05T03:47:54.658Z,26.13
2017-12-05T03:50:22.973Z,22.27
2017-12-05T03:52:51.304Z,24.98
2017-12-05T03:55:19.576Z,21.03
2017-12-05T03:57:47.864Z,25.23
2017-12-05T04:00:16.152Z,25.58
2017-12-05T04:02:44.477Z,27.27
2017-12-05T04:05:12.785Z,22.27
2017-12-05T04:07:41.067Z,28.90
2017-12-05T04:10:09.384Z,22.77
2017-12-05T04:12:37.662Z,25.60
2017-12-05T04:15:05.983Z,26.50
2017-12-05T04:17:34.280Z,30.03
2017-12-05T04:20:02.616Z,27.87
2017-12-05T04:22:30.859Z,30.90
2017-12-05T04:24:59.180Z,24.15
2017-12-05T04:27:27.460Z,24.60
2017-12-05T04:29:55.751Z,29.65
2017-12-05T04:32:24.040Z,28.77
2017-12-05T04:34:52.328Z,25.67
2017-12-05T04:37:20.623Z,30.85
2017-12-05T04:39:48.935Z,25.83
2017-12-05T04:42:17.235Z,22.93
2017-12-05T04:44:45.507Z,24.13
2017-12-05T04:47:13.794Z,23.85
2017-12-05T04:49:42.077Z,29.00
2017-12-05T04:52:10.358Z,24.33
2017-12-05T04:54:38.630Z,31.90
2017-12-05T04:57:06.920Z,23.55
2017-12-05T04:59:35.183Z,24.83
2017-12-05T05:02:03.504Z,27.10
2017-12-05T05:04:31.827Z,25.20
2017-12-05T05:07:00.150Z,27.87
2017-12-05T05:09:28.504Z,21.67
2017-12-05T05:11:57.299Z,26.93
2017-12-05T05:14:25.604Z,22.03
2017-12-05T05:16:53.870Z,22.77
2017-12-05T05:19:22.220Z,18.80
2017-12-05T05:21:50.478Z,21.80
2017-12-05T05:24:18.800Z,19.40
2017-12-05T05:26:47.058Z,23.70
2017-12-05T05:29:15.457Z,22.37
2017-12-05T05:31:43.791Z,19.30
2017-12-05T05:34:12.045Z,18.30
2017-12-05T05:36:40.382Z,16.53
2017-12-05T05:39:08.631Z,17.37
2017-12-05T05:41:36.932Z,18.37
2017-12-05T05:44:05.507Z,18.87
2017-12-05T05:46:33.819Z,16.03
2017-12-05T05:49:02.096Z,15.17
2017-12-05T05:51:30.421Z,16.43
2017-12-05T05:53:58.683Z,17.47
2017-12-05T05:56:27.021Z,18.02
2017-12-05T05:58:55.688Z,19.97
2017-12-05T06:01:24.031Z,16.92
2017-12-05T06:03:52.401Z,19.23
2017-12-05T06:06:20.805Z,22.85
2017-12-05T06:08:49.179Z,24.03
2017-12-05T06:11:17.484Z,22.57
2017-12-05T06:13:45.812Z,21.33
2017-12-05T06:16:14.100Z,18.37
2017-12-05T06:18:42.392Z,19.20
2017-12-05T06:21:10.674Z,19.08
2017-12-05T06:23:39.185Z,21.80
2017-12-05T06:26:07.470Z,20.53
2017-12-05T06:28:35.699Z,19.13
2017-12-05T06:31:04.013Z,19.33
2017-12-05T06:33:32.292Z,17.80
2017-12-05T06:36:00.587Z,15.13
2017-12-05T06:38:28.859Z,14.80
2017-12-05T06:40:57.171Z,18.40
2017-12-05T06:43:25.410Z,17.93
2017-12-05T06:45:53.767Z,21.43
2017-12-05T06:48:22.051Z,17.33
2017-12-05T06:50:50.361Z,17.87
2017-12-05T06:53:18.674Z,15.88
2017-12-05T06:55:46.975Z,15.90
2017-12-05T06:58:15.264Z,15.87
2017-12-05T07:00:43.568Z,11.47
2017-12-05T07:03:11.873Z,13.07
2017-12-05T07:05:40.144Z,13.90
2017-12-05T07:08:08.440Z,16.53
2017-12-05T07:10:36.706Z,12.85
2017-12-05T07:13:04.992Z,14.57
2017-12-05T07:15:33.369Z,16.40
2017-12-05T07:18:01.632Z,13.30
2017-12-05T07:20:29.895Z,14.70
2017-12-05T07:22:58.198Z,16.80
2017-12-05T07:25:26.459Z,15.90
2017-12-05T07:27:54.958Z,13.98
2017-12-05T07:30:23.200Z,16.20
2017-12-05T07:32:51.503Z,15.33
2017-12-05T07:35:19.803Z,14.65
2017-12-05T07:37:48.115Z,16.20
2017-12-05T07:40:16.412Z,14.00
2017-12-05T07:42:44.693Z,16.57
2017-12-05T07:45:12.990Z,15.20
2017-12-05T07:47:41.265Z,14.60
2017-12-05T07:50:09.632Z,16.30
2017-12-05T07:52:37.900Z,17.00
2017-12-05T07:55:06.262Z,22.33
2017-12-05T07:57:34.575Z,17.20
2017-12-05T08:00:02.878Z,18.97
2017-12-05T08:02:31.154Z,19.45
2017-12-05T08:04:59.455Z,21.13
2017-12-05T08:07:27.744Z,20.30
2017-12-05T08:09:56.039Z,20.27
2017-12-05T08:12:24.403Z,19.33
2017-12-05T08:14:52.739Z,22.13
2017-12-05T08:17:21.041Z,20.73
2017-12-05T08:19:49.505Z,18.33
2017-12-05T08:22:17.777Z,19.80
2017-12-05T08:24:46.074Z,23.07
2017-12-05T08:27:14.374Z,23.83
2017-12-05T08:29:42.651Z,22.90
2017-12-05T08:32:11.046Z,24.43
2017-12-05T08:34:39.404Z,23.83
2017-12-05T08:37:08.615Z,21.63
2017-12-05T08:39:36.951Z,21.73
2017-12-05T08:42:05.263Z,19.90
2017-12-05T08:44:33.555Z,19.70
2017-12-05T08:47:02.534Z,19.92
2017-12-05T08:49:31.000Z,23.20
2017-12-05T08:51:59.251Z,22.33
2017-12-05T08:54:27.561Z,23.73
2017-12-05T08:56:55.827Z,16.80
2017-12-05T08:59:24.115Z,18.63
2017-12-05T09:01:52.426Z,18.80
2017-12-05T09:04:21.050Z,20.77
2017-12-05T09:06:49.397Z,17.17
2017-12-05T09:09:17.715Z,20.20
2017-12-05T09:11:46.006Z,17.83
2017-12-05T09:14:14.337Z,20.60
2017-12-05T09:16:42.629Z,18.63
2017-12-05T09:19:11.014Z,16.70
2017-12-05T09:21:39.334Z,21.93
2017-12-05T09:24:07.644Z,23.70
2017-12-05T09:26:35.947Z,17.20
2017-12-05T09:29:04.966Z,21.20
2017-12-05T09:31:33.276Z,17.83
2017-12-05T09:34:01.628Z,18.20
2017-12-05T09:36:29.870Z,18.83
2017-12-05T09:38:58.136Z,20.47
2017-12-05T09:41:26.787Z,19.93
2017-12-05T09:43:55.068Z,24.60
2017-12-05T09:46:23.372Z,31.30
2017-12-05T09:48:51.630Z,27.08
2017-12-05T09:51:19.923Z,22.30
2017-12-05T09:53:48.251Z,22.23
2017-12-05T09:56:16.621Z,21.15
2017-12-05T09:58:44.936Z,24.90
2017-12-05T10:01:13.175Z,23.37
2017-12-05T10:03:41.465Z,22.93
2017-12-05T10:06:09.731Z,25.48
2017-12-05T10:08:38.031Z,26.05
2017-12-05T10:11:06.295Z,24.77
2017-12-05T10:13:34.588Z,26.37
2017-12-05T10:16:02.905Z,25.73
2017-12-05T10:18:31.239Z,22.97
2017-12-05T10:20:59.592Z,22.37
2017-12-05T10:23:27.855Z,26.60
2017-12-05T10:25:56.191Z,21.30
2017-12-05T10:28:24.495Z,20.20
2017-12-05T10:30:52.824Z,24.25
2017-12-05T10:33:21.145Z,21.87
2017-12-05T10:35:49.457Z,18.40
2017-12-05T10:38:17.751Z,25.63
2017-12-05T10:40:46.064Z,30.53
2017-12-05T10:43:14.379Z,22.95
2017-12-05T10:45:42.681Z,17.37
2017-12-05T10:48:10.958Z,23.37
2017-12-05T10:50:39.269Z,17.33
2017-12-05T10:53:07.860Z,23.23
2017-12-05T10:55:36.149Z,18.50
2017-12-05T10:58:04.450Z,20.40
2017-12-05T11:00:32.719Z,23.23
2017-12-05T11:03:01.022Z,30.03
2017-12-05T11:05:29.302Z,31.33
2017-12-05T11:07:57.634Z,22.73
2017-12-05T11:10:25.926Z,23.27
2017-12-05T11:12:54.259Z,19.87
2017-12-05T11:15:22.537Z,19.37
2017-12-05T11:17:50.812Z,21.50
2017-12-05T11:20:19.119Z,16.87
2017-12-05T11:22:47.393Z,21.47
2017-12-05T11:25:15.712Z,20.75
2017-12-05T11:27:43.988Z,20.07
2017-12-05T11:30:12.278Z,20.50
2017-12-05T11:32:40.558Z,27.50
2017-12-05T11:35:08.880Z,26.30
2017-12-05T11:37:37.375Z,25.83
2017-12-05T11:40:05.742Z,25.98
2017-12-05T11:42:33.984Z,24.33
2017-12-05T11:45:02.294Z,25.48
2017-12-05T11:47:30.589Z,19.27
2017-12-05T11:49:58.922Z,24.03
2017-12-05T11:52:27.212Z,27.25
2017-12-05T11:54:55.668Z,25.17
2017-12-05T11:57:24.017Z,26.57
2017-12-05T11:59:52.300Z,22.83
2017-12-05T12:02:20.623Z,26.57
2017-12-05T12:04:48.907Z,31.47
2017-12-05T12:07:17.376Z,26.03
2017-12-05T12:09:45.655Z,30.73
2017-12-05T12:12:13.951Z,33.55
2017-12-05T12:14:43.161Z,29.70
2017-12-05T12:17:11.462Z,30.10
2017-12-05T12:19:40.177Z,27.07
2017-12-05T12:22:08.526Z,36.03
2017-12-05T12:24:36.847Z,32.13
2017-12-05T12:27:05.125Z,36.20
2017-12-05T12:29:33.395Z,34.73
2017-12-05T12:32:01.858Z,33.57
2017-12-05T12:34:30.104Z,31.00
2017-12-05T12:36:58.415Z,33.60
2017-12-05T12:39:26.734Z,31.33
2017-12-05T12:41:55.016Z,33.90
2017-12-05T12:44:23.318Z,27.23
2017-12-05T12:46:51.614Z,22.10
2017-12-05T12:49:19.895Z,23.67
2017-12-05T12:51:48.176Z,28.93
2017-12-05T12:54:16.824Z,29.67
2017-12-05T12:56:45.105Z,26.33
2017-12-05T12:59:13.447Z,33.13
2017-12-05T13:01:41.780Z,26.47
2017-12-05T13:04:10.980Z,26.70
2017-12-05T13:06:39.315Z,26.67
2017-12-05T13:09:08.534Z,25.48
2017-12-05T13:11:36.791Z,27.80
2017-12-05T13:14:05.155Z,26.77
2017-12-05T13:16:33.501Z,31.30
2017-12-05T13:19:01.852Z,24.20
2017-12-05T13:21:30.207Z,27.20
2017-12-05T13:23:58.514Z,22.30
2017-12-05T13:26:26.815Z,27.80
2017-12-05T13:28:55.188Z,24.43
2017-12-05T13:31:24.349Z,29.17
2017-12-05T13:33:52.655Z,30.37
2017-12-05T13:36:21.004Z,29.63
2017-12-05T13:38:49.294Z,28.70
2017-12-05T13:41:17.659Z,30.07
2017-12-05T13:43:46.000Z,24.63
2017-12-05T13:46:14.346Z,28.67
2017-12-05T13:48:42.686Z,37.00
2017-12-05T13:51:11.115Z,33.13
2017-12-05T13:53:39.409Z,22.42
2017-12-05T13:56:07.692Z,25.00
2017-12-05T13:58:37.033Z,28.60
2017-12-05T14:01:05.575Z,28.67
2017-12-05T14:03:33.955Z,36.93
2017-12-05T14:06:02.258Z,37.75
2017-12-05T14:08:30.560Z,34.00
2017-12-05T14:10:58.904Z,38.07
2017-12-05T14:13:27.292Z,32.13
2017-12-05T14:15:56.034Z,28.70
2017-12-05T14:18:24.328Z,26.97
2017-12-05T14:20:52.621Z,28.95
2017-12-05T14:23:20.990Z,24.48
2017-12-05T14:25:49.244Z,26.63
2017-12-05T14:28:18.212Z,26.10
2017-12-05T14:30:46.532Z,23.93
2017-12-05T14:33:14.819Z,26.70
2017-12-05T14:35:43.192Z,28.73
2017-12-05T14:38:12.491Z,28.50
2017-12-05T14:40:40.894Z,29.40
2017-12-05T14:43:09.192Z,22.60
2017-12-05T14:45:38.428Z,25.80
2017-12-05T14:48:06.805Z,29.87
2017-12-05T14:50:35.087Z,24.50
2017-12-05T14:53:03.384Z,24.90
2017-12-05T14:55:31.797Z,24.13
2017-12-05T14:58:00.302Z,29.67
2017-12-05T15:00:29.500Z,28.23
2017-12-05T15:02:57.789Z,30.40
2017-12-05T15:05:26.089Z,28.50
2017-12-05T15:07:55.021Z,24.90
2017-12-05T15:10:23.355Z,24.07
2017-12-05T15:12:51.689Z,27.10
2017-12-05T15:15:20.035Z,30.53
2017-12-05T15:17:48.331Z,24.17
2017-12-05T15:20:16.643Z,32.40
2017-12-05T15:22:44.947Z,23.63
2017-12-05T15:25:14.445Z,26.40
2017-12-05T15:27:42.740Z,23.30
2017-12-05T15:30:11.061Z,26.48
2017-12-05T15:32:39.428Z,24.40
2017-12-05T15:35:07.755Z,25.13
2017-12-05T15:37:36.076Z,23.10
2017-12-05T15:40:05.428Z,28.20
2017-12-05T15:42:33.751Z,28.10
2017-12-05T15:45:02.051Z,24.60
2017-12-05T15:47:30.363Z,28.73
2017-12-05T15:49:58.733Z,25.23
2017-12-05T15:52:26.990Z,24.30
2017-12-05T15:54:55.331Z,27.63
2017-12-05T15:57:23.820Z,23.40
2017-12-05T15:59:52.128Z,21.57
2017-12-05T16:02:20.986Z,22.35
2017-12-05T16:04:49.314Z,27.60
2017-12-05T16:07:17.637Z,26.35
2017-12-05T16:09:45.963Z,36.00
2017-12-05T16:12:14.299Z,35.55
2017-12-05T16:14:42.603Z,28.17
2017-12-05T16:17:10.888Z,30.12
2017-12-05T16:19:39.294Z,34.13
2017-12-05T16:22:07.587Z,27.43
2017-12-05T16:24:35.888Z,24.65
2017-12-05T16:27:04.863Z,30.00
2017-12-05T16:29:33.142Z,28.33
2017-12-05T16:32:01.422Z,34.97
2017-12-05T16:34:29.753Z,27.10
2017-12-05T16:36:58.034Z,33.07
2017-12-05T16:39:26.866Z,29.10
2017-12-05T16:41:55.180Z,30.93
2017-12-05T16:44:23.461Z,31.43
2017-12-05T16:46:51.811Z,25.93
2017-12-05T16:49:20.106Z,32.85
2017-12-05T16:51:48.408Z,27.43
2017-12-05T16:54:16.723Z,30.52
2017-12-05T16:56:45.055Z,27.17
2017-12-05T16:59:13.454Z,28.30
2017-12-05T17:01:41.791Z,28.53
2017-12-05T17:04:10.130Z,29.40
2017-12-05T17:06:38.709Z,25.80
2017-12-05T17:09:07.041Z,33.47
2017-12-05T17:11:35.334Z,31.50
2017-12-05T17:14:04.379Z,30.65
2017-12-05T17:16:32.976Z,25.83
2017-12-05T17:19:01.298Z,29.97
2017-12-05T17:21:29.651Z,27.53
2017-12-05T17:23:58.203Z,36.23
2017-12-05T17:26:26.463Z,26.12
2017-12-05T17:28:54.808Z,29.63
2017-12-05T17:31:23.104Z,25.80
2017-12-05T17:33:51.450Z,33.63
2017-12-05T17:36:19.782Z,31.03
2017-12-05T17:38:48.114Z,33.57
2017-12-05T17:41:16.550Z,38.40
2017-12-05T17:43:44.893Z,29.53
2017-12-05T17:46:13.172Z,28.98
2017-12-05T17:48:41.552Z,26.02
2017-12-05T17:51:09.861Z,35.08
2017-12-05T17:53:38.172Z,35.47
2017-12-05T17:56:06.618Z,30.70
2017-12-05T17:58:34.899Z,36.37
2017-12-05T18:01:03.311Z,28.87
2017-12-05T18:03:32.548Z,28.23
2017-12-05T18:06:00.839Z,26.30
2017-12-05T18:08:29.184Z,25.33
2017-12-05T18:10:57.449Z,29.83
2017-12-05T18:13:25.791Z,28.93
2017-12-05T18:15:54.143Z,32.90
2017-12-05T18:18:22.471Z,32.00
2017-12-05T18:20:50.791Z,27.30
2017-12-05T18:23:20.104Z,26.15
2017-12-05T18:25:48.368Z,30.30
2017-12-05T18:28:16.659Z,29.80
2017-12-05T18:30:45.017Z,27.53
2017-12-05T18:35:47.775Z,25.93
2017-12-05T18:38:16.061Z,29.90
2017-12-05T18:40:44.465Z,32.73
2017-12-05T18:43:12.746Z,36.28
2017-12-05T18:45:41.093Z,27.77
2017-12-05T18:48:09.384Z,36.35
2017-12-05T18:50:37.675Z,33.27
2017-12-05T18:53:05.955Z,30.23
2017-12-05T18:55:34.277Z,33.28
2017-12-05T18:58:02.599Z,33.43
2017-12-05T19:00:30.888Z,33.20
2017-12-05T19:02:59.276Z,28.50
2017-12-05T19:05:27.495Z,32.13
2017-12-05T19:07:55.796Z,32.93
2017-12-05T19:10:24.073Z,28.53
2017-12-05T19:12:52.383Z,37.95
2017-12-05T19:15:20.851Z,29.80
2017-12-05T19:17:49.648Z,33.43
2017-12-05T19:20:17.927Z,30.07
2017-12-05T19:22:46.437Z,25.50
2017-12-05T19:25:14.778Z,29.35
2017-12-05T19:27:43.091Z,29.27
2017-12-05T19:30:11.445Z,25.95
2017-12-05T19:32:39.719Z,37.27
2017-12-05T19:35:08.062Z,37.53
2017-12-05T19:37:36.422Z,33.15
2017-12-05T19:40:04.799Z,30.00
2017-12-05T19:42:33.055Z,35.27
2017-12-05T19:45:01.415Z,34.97
2017-12-05T19:47:29.701Z,36.37
2017-12-05T19:49:58.007Z,31.10
2017-12-05T19:52:26.309Z,39.80
2017-12-05T19:54:54.618Z,33.97
2017-12-05T19:57:23.136Z,32.05
2017-12-05T19:59:51.477Z,32.63
2017-12-05T20:02:19.840Z,28.93
2017-12-05T20:04:48.142Z,29.43
2017-12-05T20:07:16.448Z,31.15
2017-12-05T20:09:44.765Z,31.67
2017-12-05T20:12:13.060Z,26.40
2017-12-05T20:14:41.388Z,41.47
2017-12-05T20:17:09.803Z,35.00
2017-12-05T20:19:38.135Z,37.05
2017-12-05T20:22:06.469Z,27.60
2017-12-05T20:24:34.786Z,30.93
2017-12-05T20:27:03.117Z,38.13
2017-12-05T20:29:31.435Z,29.80
2017-12-05T20:31:59.766Z,35.67
2017-12-05T20:34:28.113Z,33.25
2017-12-05T20:36:56.407Z,31.00
2017-12-05T20:39:25.709Z,32.33
2017-12-05T20:41:54.055Z,35.97
2017-12-05T20:44:22.504Z,30.20
2017-12-05T20:46:50.858Z,41.07
2017-12-05T20:49:19.191Z,38.88
2017-12-05T20:51:47.479Z,33.67
2017-12-05T20:54:16.324Z,30.67
2017-12-05T20:56:44.799Z,30.53
2017-12-05T20:59:13.139Z,35.72
2017-12-05T21:01:41.427Z,28.73
2017-12-05T21:04:09.828Z,33.00
2017-12-05T21:06:38.170Z,27.63
2017-12-05T21:09:06.894Z,32.30
2017-12-05T21:11:35.181Z,30.27
2017-12-05T21:14:03.516Z,35.43
2017-12-05T21:16:31.851Z,37.83
2017-12-05T21:19:00.151Z,32.15
2017-12-05T21:21:28.450Z,32.10
2017-12-05T21:23:56.781Z,31.17
2017-12-05T21:26:25.094Z,30.62
2017-12-05T21:28:53.424Z,27.50
2017-12-05T21:31:21.709Z,29.90
2017-12-05T21:33:49.984Z,32.97
2017-12-05T21:36:18.340Z,28.60
2017-12-05T21:38:46.660Z,31.97
2017-12-05T21:41:14.994Z,31.17
2017-12-05T21:43:43.300Z,30.43
2017-12-05T21:46:11.619Z,30.80
2017-12-05T21:48:39.960Z,30.63
2017-12-05T21:51:08.843Z,31.53
2017-12-05T21:53:37.154Z,33.27
2017-12-05T21:56:05.749Z,36.20
2017-12-05T21:58:34.056Z,25.63
2017-12-05T22:01:02.339Z,36.53
2017-12-05T22:03:30.639Z,32.60
2017-12-05T22:05:58.917Z,33.10
2017-12-05T22:08:27.229Z,34.43
2017-12-05T22:10:55.507Z,35.13
2017-12-05T22:13:23.824Z,30.40
2017-12-05T22:15:52.159Z,31.27
2017-12-05T22:18:21.033Z,32.78
2017-12-05T22:20:49.315Z,31.17
2017-12-05T22:23:17.599Z,28.30
2017-12-05T22:25:45.940Z,35.07
2017-12-05T22:28:14.234Z,29.17
2017-12-05T22:30:42.548Z,34.43
2017-12-05T22:33:10.823Z,32.50
2017-12-05T22:35:39.751Z,37.57
2017-12-05T22:38:08.041Z,33.17
2017-12-05T22:40:36.351Z,37.57
2017-12-05T22:43:04.723Z,33.38
2017-12-05T22:45:33.024Z,33.50
2017-12-05T22:48:01.319Z,29.15
2017-12-05T22:50:29.587Z,29.87
2017-12-05T22:52:57.898Z,29.70
2017-12-05T22:55:26.198Z,27.87
2017-12-05T22:57:54.499Z,28.17
2017-12-05T23:00:22.776Z,34.42
2017-12-05T23:02:51.130Z,32.20
2017-12-05T23:05:19.399Z,31.98
2017-12-05T23:07:47.726Z,31.80
2017-12-05T23:10:15.991Z,31.07
2017-12-05T23:12:44.325Z,30.77
2017-12-05T23:15:12.998Z,28.52
2017-12-05T23:17:41.320Z,31.90
2017-12-05T23:20:09.657Z,27.30
2017-12-05T23:22:37.947Z,26.77
2017-12-05T23:25:07.094Z,30.10
2017-12-05T23:27:35.412Z,28.37
2017-12-05T23:30:03.699Z,27.63
2017-12-05T23:32:31.975Z,29.73
2017-12-05T23:35:00.327Z,29.33
2017-12-05T23:37:28.589Z,28.17
2017-12-05T23:39:57.004Z,29.70
2017-12-05T23:42:25.279Z,25.23
2017-12-05T23:44:53.559Z,24.37
2017-12-05T23:47:21.877Z,29.65
2017-12-05T23:49:50.131Z,31.17
2017-12-05T23:52:18.690Z,27.73
2017-12-05T23:54:47.022Z,26.30
2017-12-05T23:57:15.306Z,25.75
2017-12-05T23:59:43.585Z,22.60
